Time;durP1;ratioP1;P1;durP2;ratioP2;P2;SDS_P1;SDS_P2;PMS_P1;PMS_P2;Temp;Humidity;BMP_temperature;BMP_pressure;BME280_temperature;BME280_humidity;BME280_pressure;Samples;Min_cycle;Max_cycle;Signal;HPM_P1;HPM_P2
2022/11/24 00:00:31;;;;;;;11.13;3.28;;;;;;;8.37;87.03;98676.63;5030864;28;20581;-85
2022/11/24 00:02:57;;;;;;;12.85;3.33;;;;;;;8.39;86.92;98690.75;5029086;28;20041;-85
2022/11/24 00:05:22;;;;;;;11.20;3.60;;;;;;;8.40;86.89;98692.38;5030388;28;20075;-85
2022/11/24 00:07:47;;;;;;;7.78;2.40;;;;;;;8.24;87.55;98697.84;5030020;28;20270;-85
2022/11/24 00:10:13;;;;;;;12.37;2.83;;;;;;;8.44;86.64;98696.16;5029985;28;20038;-85
2022/11/24 00:12:38;;;;;;;13.65;3.30;;;;;;;8.49;86.04;98707.00;5034636;28;20367;-85
2022/11/24 00:15:03;;;;;;;11.57;3.33;;;;;;;8.25;86.59;98696.78;5049700;28;20116;-84
2022/11/24 00:17:29;;;;;;;8.43;3.25;;;;;;;8.31;86.56;98688.59;5049704;28;20803;-84
2022/11/24 00:19:54;;;;;;;11.95;2.90;;;;;;;8.31;86.42;98688.59;5049323;28;20068;-84
2022/11/24 00:22:20;;;;;;;14.55;2.85;;;;;;;8.41;85.83;98692.09;5052960;28;20032;-83
2022/11/24 00:24:45;;;;;;;15.45;3.45;;;;;;;8.29;86.28;98688.88;5052923;28;20398;-84
2022/11/24 00:27:10;;;;;;;12.77;4.37;;;;;;;8.32;86.07;98698.38;5053009;28;20045;-83
2022/11/24 00:29:35;;;;;;;13.52;5.10;;;;;;;8.18;86.26;98697.03;5053129;28;20278;-83
2022/11/24 00:32:04;;;;;;;15.73;3.08;;;;;;;8.28;86.10;98707.06;5053242;28;20048;-83
2022/11/24 00:34:30;;;;;;;17.67;3.22;;;;;;;8.23;85.79;98704.38;5033406;28;20057;-83
2022/11/24 00:36:55;;;;;;;23.75;3.45;;;;;;;8.17;86.40;98698.16;5033478;28;20096;-83
2022/11/24 00:39:20;;;;;;;10.43;3.70;;;;;;;8.34;85.75;98710.59;5033216;28;20091;-85
2022/11/24 00:41:46;;;;;;;15.40;3.45;;;;;;;8.16;85.98;98709.25;5031656;28;20449;-84
2022/11/24 00:44:11;;;;;;;15.77;3.07;;;;;;;8.07;86.21;98709.03;5033941;28;20238;-84
2022/11/24 00:46:36;;;;;;;8.07;2.42;;;;;;;8.13;86.34;98710.66;5032950;28;20253;-84
2022/11/24 00:49:02;;;;;;;15.13;3.47;;;;;;;8.22;85.68;98721.75;5043970;28;20041;-84
2022/11/24 00:51:29;;;;;;;18.02;3.70;;;;;;;8.18;85.72;98717.94;5052193;28;20090;-85
2022/11/24 00:53:58;;;;;;;22.77;5.65;;;;;;;8.08;86.11;98713.34;5051301;28;20056;-84
2022/11/24 00:56:24;;;;;;;8.93;3.45;;;;;;;8.14;86.35;98720.41;5053205;28;20074;-84
2022/11/24 00:58:50;;;;;;;10.02;2.45;;;;;;;8.14;85.99;98723.13;5052613;28;20131;-85
2022/11/24 01:01:18;;;;;;;10.32;3.22;;;;;;;8.10;85.99;98719.31;5051621;28;20101;-85
2022/11/24 01:03:45;;;;;;;9.32;3.53;;;;;;;8.14;85.74;98728.56;5037711;28;20136;-85
2022/11/24 01:06:16;;;;;;;9.73;2.50;;;;;;;8.18;85.28;98717.94;5035757;28;20070;-83
2022/11/24 01:08:42;;;;;;;7.57;2.00;;;;;;;8.09;85.71;98725.03;5045500;28;20094;-84
2022/11/24 01:11:13;;;;;;;9.15;3.70;;;;;;;8.10;85.56;98718.50;5046902;28;20421;-84
2022/11/24 01:13:40;;;;;;;11.18;3.58;;;;;;;8.07;85.77;98730.75;5049036;28;20144;-86
2022/11/24 01:16:12;;;;;;;11.00;2.90;;;;;;;8.11;85.28;98744.56;5043561;28;20518;-85
2022/11/24 01:18:38;;;;;;;9.55;3.22;;;;;;;8.13;85.39;98736.97;5045530;28;20394;-84
2022/11/24 01:21:04;;;;;;;10.60;2.28;;;;;;;8.15;85.08;98751.91;5031919;28;20042;-84
2022/11/24 01:23:29;;;;;;;12.38;3.05;;;;;;;8.05;85.50;98750.00;5031318;28;20040;-84
2022/11/24 01:25:54;;;;;;;14.53;3.20;;;;;;;8.14;84.83;98738.59;5031733;28;20034;-84
2022/11/24 01:28:19;;;;;;;18.30;6.43;;;;;;;8.11;84.98;98734.53;5045403;28;20266;-83
2022/11/24 01:30:46;;;;;;;14.63;4.30;;;;;;;8.05;85.08;98736.44;5051098;28;20037;-84
2022/11/24 01:33:11;;;;;;;12.82;3.38;;;;;;;8.08;85.23;98740.50;5045235;28;20350;-84
2022/11/24 01:35:36;;;;;;;12.65;2.95;;;;;;;8.13;84.68;98743.22;5042588;28;20111;-84
2022/11/24 01:38:02;;;;;;;11.43;3.22;;;;;;;8.16;84.33;98750.81;5039842;28;20028;-84
2022/11/24 01:40:27;;;;;;;15.57;4.17;;;;;;;7.99;84.99;98753.00;5038409;28;20093;-85
2022/11/24 01:42:52;;;;;;;9.73;2.50;;;;;;;8.02;85.08;98747.84;5036197;28;20407;-84
2022/11/24 01:45:35;;;;;;;11.35;3.28;;;;;;;8.09;85.10;98746.75;5038376;28;20258;-84
2022/11/24 01:48:04;;;;;;;10.40;2.80;;;;;;;8.00;85.04;98749.19;5048557;28;20305;-84
2022/11/24 01:50:30;;;;;;;15.88;5.00;;;;;;;8.00;85.06;98752.72;5051390;28;20151;-84
2022/11/24 01:52:57;;;;;;;15.38;2.90;;;;;;;7.98;85.26;98744.03;5049785;28;20435;-84
2022/11/24 01:55:29;;;;;;;15.30;3.80;;;;;;;8.05;85.02;98758.13;5050326;28;20067;-84
2022/11/24 01:58:03;;;;;;;16.50;4.60;;;;;;;7.99;85.22;98761.16;5051247;28;20037;-84
2022/11/24 02:00:29;;;;;;;10.75;2.47;;;;;;;7.92;84.90;98764.13;5050643;28;20033;-85
2022/11/24 02:02:56;;;;;;;16.07;3.60;;;;;;;8.05;85.03;98760.06;5043572;28;20034;-84
2022/11/24 02:05:42;;;;;;;11.43;3.17;;;;;;;7.98;85.14;98763.03;5030097;28;20273;-84
2022/11/24 02:08:17;;;;;;;12.07;2.92;;;;;;;7.94;84.83;98764.66;5030787;28;20331;-84
2022/11/24 02:10:44;;;;;;;14.40;3.75;;;;;;;8.11;84.63;98763.59;5031141;28;20025;-84
2022/11/24 02:13:09;;;;;;;8.45;3.08;;;;;;;8.01;85.10;98767.94;5029147;28;20326;-84
2022/11/24 02:15:35;;;;;;;10.32;2.42;;;;;;;7.99;85.39;98759.25;5030875;28;20053;-84
2022/11/24 02:18:00;;;;;;;11.80;2.83;;;;;;;8.00;85.40;98770.91;5033904;28;20184;-84
2022/11/24 02:20:25;;;;;;;11.27;3.00;;;;;;;8.03;85.26;98775.81;5050382;28;20262;-85
2022/11/24 02:23:03;;;;;;;11.77;3.60;;;;;;;8.05;85.04;98774.44;5050153;28;20266;-85
2022/11/24 02:25:38;;;;;;;10.88;2.45;;;;;;;8.09;84.96;98773.91;5050681;28;20537;-85
2022/11/24 02:28:07;;;;;;;13.73;3.63;;;;;;;8.05;85.69;98773.63;5049359;28;20037;-84
2022/11/24 02:30:33;;;;;;;11.02;3.20;;;;;;;8.13;84.81;98767.66;5050639;28;20025;-84
2022/11/24 02:32:59;;;;;;;9.77;2.58;;;;;;;8.18;84.71;98769.53;5048991;28;20468;-85
2022/11/24 02:35:26;;;;;;;12.43;2.92;;;;;;;8.17;84.75;98770.63;5049247;28;20080;-84
2022/11/24 02:37:51;;;;;;;11.05;3.08;;;;;;;8.18;84.66;98772.25;5050556;28;20028;-84
2022/11/24 02:40:24;;;;;;;10.13;3.05;;;;;;;8.14;84.90;98777.41;5049874;28;20029;-84
2022/11/24 02:42:53;;;;;;;20.98;4.20;;;;;;;8.14;84.66;98779.31;5049284;28;20521;-84
2022/11/24 02:45:19;;;;;;;19.35;2.30;;;;;;;8.16;84.69;98777.97;5051085;28;20046;-84
2022/11/24 02:47:45;;;;;;;7.25;2.58;;;;;;;8.14;84.56;98776.59;5049982;28;20067;-84
2022/11/24 02:50:10;;;;;;;22.40;4.85;;;;;;;8.06;84.54;98786.94;5050260;28;20025;-84
2022/11/24 02:52:35;;;;;;;16.55;3.63;;;;;;;8.16;84.45;98801.56;5049752;28;20079;-84
2022/11/24 02:55:01;;;;;;;7.32;2.22;;;;;;;8.20;84.39;98786.38;5049535;28;20074;-85
2022/11/24 02:57:26;;;;;;;11.77;3.03;;;;;;;8.23;84.15;98791.28;5049309;28;20064;-85
2022/11/24 02:59:51;;;;;;;15.63;3.65;;;;;;;8.11;84.36;98790.72;5050034;28;20251;-84
2022/11/24 03:02:17;;;;;;;16.08;2.75;;;;;;;8.33;84.19;98800.47;5049511;28;20033;-85
2022/11/24 03:04:43;;;;;;;9.30;2.45;;;;;;;8.28;84.04;98793.16;5049634;28;20032;-83
2022/11/24 03:07:08;;;;;;;23.95;4.55;;;;;;;8.29;83.82;98805.66;5050068;28;20094;-84
2022/11/24 03:09:34;;;;;;;11.18;3.30;;;;;;;8.25;83.93;98799.97;5050186;28;20033;-84
2022/11/24 03:11:59;;;;;;;21.20;3.10;;;;;;;8.21;84.19;98801.59;5049843;28;20029;-84
2022/11/24 03:14:24;;;;;;;9.00;4.30;;;;;;;8.26;84.06;98798.84;5029411;28;20365;-84
2022/11/24 03:16:50;;;;;;;28.17;6.07;;;;;;;8.08;84.64;98799.41;5029640;28;20294;-84
2022/11/24 03:19:15;;;;;;;12.77;5.07;;;;;;;8.20;84.21;98807.31;5043617;28;20100;-84
2022/11/24 03:21:40;;;;;;;9.87;2.70;;;;;;;8.27;83.98;98800.50;5049716;28;20060;-86
2022/11/24 03:24:05;;;;;;;8.57;2.50;;;;;;;8.12;83.99;98797.78;5032051;28;20270;-84
2022/11/24 03:26:33;;;;;;;12.03;2.67;;;;;;;8.12;84.41;98801.31;5029396;28;20250;-84
2022/11/24 03:28:58;;;;;;;9.50;3.30;;;;;;;8.09;84.60;98801.06;5029994;28;20263;-83
2022/11/24 03:31:24;;;;;;;8.70;2.53;;;;;;;8.09;84.97;98801.06;5030207;28;20064;-84
2022/11/24 03:33:49;;;;;;;14.60;3.00;;;;;;;8.09;84.19;98795.63;5044238;28;20032;-84
2022/11/24 03:36:15;;;;;;;17.98;3.50;;;;;;;8.19;84.05;98795.63;5049776;28;20257;-84
2022/11/24 03:38:41;;;;;;;13.20;3.35;;;;;;;8.15;83.80;98794.53;5050077;28;20122;-84
2022/11/24 03:41:06;;;;;;;15.05;3.42;;;;;;;8.14;84.72;98801.03;5050078;28;20029;-85
2022/11/24 03:43:31;;;;;;;13.37;3.57;;;;;;;8.24;84.02;98809.19;5049392;28;20405;-84
2022/11/24 03:45:56;;;;;;;7.45;2.42;;;;;;;8.31;83.80;98808.09;5049882;28;20258;-84
2022/11/24 03:48:22;;;;;;;7.80;2.33;;;;;;;8.32;83.82;98804.31;5049377;28;20160;-84
2022/11/24 03:50:56;;;;;;;10.20;2.40;;;;;;;8.28;83.47;98809.44;5050743;28;20041;-84
2022/11/24 03:53:22;;;;;;;12.88;3.67;;;;;;;8.33;83.39;98811.34;5038780;28;20040;-84
2022/11/24 03:55:48;;;;;;;17.88;3.72;;;;;;;8.25;83.60;98821.69;5033613;28;20029;-85
2022/11/24 03:58:13;;;;;;;21.25;3.00;;;;;;;8.22;83.50;98816.78;5033996;28;20466;-85
2022/11/24 04:00:39;;;;;;;39.40;4.70;;;;;;;8.16;83.99;98826.00;5033890;28;20044;-85
2022/11/24 04:03:04;;;;;;;8.77;2.83;;;;;;;8.22;83.92;98827.66;5041684;28;20128;-84
2022/11/24 04:05:30;;;;;;;11.83;2.90;;;;;;;8.18;83.96;98832.00;5053532;28;20072;-84
2022/11/24 04:07:56;;;;;;;8.93;2.17;;;;;;;8.20;83.73;98829.03;5052823;28;20277;-84
2022/11/24 04:10:22;;;;;;;13.07;3.28;;;;;;;8.26;83.24;98831.44;5053408;28;20033;-85
2022/11/24 04:12:48;;;;;;;10.55;3.92;;;;;;;8.28;83.28;98842.03;5045668;28;20054;-83
2022/11/24 04:15:16;;;;;;;12.48;3.40;;;;;;;8.29;83.42;98839.06;5031429;28;20139;-85
2022/11/24 04:17:41;;;;;;;10.43;3.20;;;;;;;8.34;83.06;98834.72;5033907;28;20054;-84
2022/11/24 04:20:07;;;;;;;16.23;3.00;;;;;;;8.31;82.80;98837.97;5053059;28;20055;-84
2022/11/24 04:22:32;;;;;;;13.82;5.30;;;;;;;8.19;83.70;98844.50;5051308;28;20432;-84
2022/11/24 04:24:58;;;;;;;10.57;2.47;;;;;;;8.29;83.17;98838.25;5053231;28;20542;-84
2022/11/24 04:27:23;;;;;;;15.13;3.23;;;;;;;8.26;83.66;98836.88;5053162;28;20044;-84
2022/11/24 04:29:49;;;;;;;6.80;2.30;;;;;;;8.31;83.95;98846.94;5053164;28;20261;-83
2022/11/24 04:32:15;;;;;;;12.07;4.20;;;;;;;8.29;84.38;98844.50;5052253;28;20474;-84
2022/11/24 04:34:40;;;;;;;9.20;2.90;;;;;;;8.37;84.21;98850.47;5051492;28;20032;-84
2022/11/24 04:37:06;;;;;;;13.07;3.72;;;;;;;8.28;84.91;98852.88;5052789;28;20025;-84
2022/11/24 04:39:31;;;;;;;23.00;4.00;;;;;;;8.33;84.94;98850.19;5052371;28;20025;-83
2022/11/24 04:41:56;;;;;;;10.02;2.80;;;;;;;8.40;84.52;98863.50;5052731;28;20254;-84
2022/11/24 04:44:22;;;;;;;10.13;3.38;;;;;;;8.27;84.99;98860.25;5052003;28;20319;-84
2022/11/24 04:46:47;;;;;;;13.80;3.43;;;;;;;8.24;85.50;98860.78;5052645;28;20417;-84
2022/11/24 04:49:12;;;;;;;12.13;3.37;;;;;;;8.21;85.65;98865.94;5052507;28;20411;-84
2022/11/24 04:51:38;;;;;;;20.83;4.80;;;;;;;8.27;85.43;98873.81;5052368;28;20277;-84
2022/11/24 04:54:05;;;;;;;9.68;2.75;;;;;;;8.26;85.62;98866.75;5051941;28;20059;-84
2022/11/24 04:56:31;;;;;;;17.98;4.35;;;;;;;8.38;85.51;98866.47;5052116;28;20171;-84
2022/11/24 04:58:56;;;;;;;7.87;2.43;;;;;;;8.35;85.73;98875.19;5051921;28;20132;-84
2022/11/24 05:01:21;;;;;;;14.45;3.95;;;;;;;8.21;86.42;98880.34;5052112;28;20280;-84
2022/11/24 05:03:46;;;;;;;16.17;4.28;;;;;;;8.23;86.47;98886.31;5037029;28;20034;-84
2022/11/24 05:06:12;;;;;;;17.88;3.97;;;;;;;8.30;86.73;98883.31;5031082;28;20048;-84
2022/11/24 05:08:37;;;;;;;8.65;2.90;;;;;;;8.36;86.19;98892.31;5031802;28;20119;-83
2022/11/24 05:11:06;;;;;;;9.60;3.17;;;;;;;8.34;86.06;98889.84;5032201;28;20454;-84
2022/11/24 05:13:32;;;;;;;12.10;5.07;;;;;;;8.27;86.58;98892.84;5043794;28;20087;-84
2022/11/24 05:15:58;;;;;;;12.93;3.08;;;;;;;8.29;86.24;98898.81;5052508;28;20038;-84
2022/11/24 05:18:23;;;;;;;8.85;3.45;;;;;;;8.26;86.29;98907.47;5052309;28;20156;-84
2022/11/24 05:20:49;;;;;;;12.88;3.33;;;;;;;8.34;86.09;98906.13;5051130;28;20037;-84
2022/11/24 05:23:14;;;;;;;7.00;2.43;;;;;;;8.26;86.14;98912.09;5041343;28;20041;-84
2022/11/24 05:25:40;;;;;;;11.73;3.38;;;;;;;8.42;85.78;98912.91;5032110;28;20254;-84
2022/11/24 05:28:08;;;;;;;11.43;3.60;;;;;;;8.32;85.82;98921.09;5031835;28;20033;-85
2022/11/24 05:30:37;;;;;;;22.38;5.85;;;;;;;8.34;86.03;98933.28;5032029;28;20026;-83
2022/11/24 05:33:07;;;;;;;14.82;4.03;;;;;;;8.40;85.65;98936.84;5039994;28;20096;-84
2022/11/24 05:35:34;;;;;;;9.35;4.22;;;;;;;8.53;85.46;98930.88;5051448;28;20140;-84
2022/11/24 05:37:59;;;;;;;10.13;2.90;;;;;;;8.48;85.06;98930.84;5051844;28;20031;-84
2022/11/24 05:40:24;;;;;;;12.95;2.95;;;;;;;8.60;85.04;98930.59;5051447;28;20115;-84
2022/11/24 05:42:49;;;;;;;14.17;2.97;;;;;;;8.63;84.74;98934.69;5050835;28;20036;-85
2022/11/24 05:45:18;;;;;;;11.07;3.40;;;;;;;8.54;84.88;98937.13;5051622;28;20270;-84
2022/11/24 05:47:43;;;;;;;15.45;4.72;;;;;;;8.60;84.31;98932.53;5049767;28;20056;-84
2022/11/24 05:50:11;;;;;;;15.07;2.90;;;;;;;8.59;84.58;98941.75;5051543;28;20470;-84
2022/11/24 05:52:37;;;;;;;10.63;3.75;;;;;;;8.56;84.49;98950.44;5050759;28;20035;-84
2022/11/24 05:55:03;;;;;;;9.63;4.18;;;;;;;8.64;84.33;98950.72;5051473;28;20033;-84
2022/11/24 05:57:29;;;;;;;14.52;3.05;;;;;;;8.61;84.33;98945.00;5051282;28;20041;-84
2022/11/24 05:59:54;;;;;;;17.58;3.63;;;;;;;8.66;83.92;98953.19;5051322;28;20036;-84
2022/11/24 06:02:19;;;;;;;20.23;4.37;;;;;;;8.66;84.20;98955.91;5048340;28;20029;-84
2022/11/24 06:04:44;;;;;;;8.45;2.83;;;;;;;8.58;83.86;98951.00;5031265;28;20249;-84
2022/11/24 06:07:13;;;;;;;18.03;3.67;;;;;;;8.51;84.54;98954.78;5030757;28;20537;-84
2022/11/24 06:09:40;;;;;;;22.25;4.47;;;;;;;8.67;84.31;98962.13;5031090;28;20275;-84
2022/11/24 06:12:06;;;;;;;16.70;3.55;;;;;;;8.66;83.96;98961.34;5030722;28;20028;-84
2022/11/24 06:14:32;;;;;;;12.02;5.25;;;;;;;8.73;83.71;98956.44;5031470;28;20462;-85
2022/11/24 06:16:57;;;;;;;12.60;3.13;;;;;;;8.63;83.84;98967.28;5030428;28;20136;-84
2022/11/24 06:19:22;;;;;;;14.50;4.60;;;;;;;8.59;84.14;98966.22;5030906;28;20033;-84
2022/11/24 06:21:47;;;;;;;15.48;3.72;;;;;;;8.50;84.16;98966.72;5030819;28;20037;-84
2022/11/24 06:24:13;;;;;;;17.47;4.77;;;;;;;8.63;83.74;98962.69;5029840;28;20124;-84
2022/11/24 06:26:39;;;;;;;13.07;4.03;;;;;;;8.70;83.46;98973.28;5031093;28;20255;-84
2022/11/24 06:29:04;;;;;;;20.60;4.93;;;;;;;8.70;83.90;98967.03;5030407;28;20352;-84
2022/11/24 06:31:29;;;;;;;15.40;3.70;;;;;;;8.52;83.93;98966.47;5031467;28;20041;-84
2022/11/24 06:33:55;;;;;;;19.45;6.20;;;;;;;8.59;83.95;98971.66;5030557;28;20033;-84
2022/11/24 06:36:20;;;;;;;20.17;4.65;;;;;;;8.48;84.11;98974.31;5031065;28;20045;-84
2022/11/24 06:38:45;;;;;;;14.52;3.53;;;;;;;8.72;83.42;98987.44;5030390;28;20443;-84
2022/11/24 06:41:13;;;;;;;51.47;7.65;;;;;;;8.45;83.16;98982.19;5030038;28;20080;-84
2022/11/24 06:43:39;;;;;;;22.35;3.58;;;;;;;8.58;83.26;98987.16;5042613;28;20032;-85
2022/11/24 06:46:04;;;;;;;24.73;4.68;;;;;;;8.35;83.52;98983.00;5050709;28;20116;-85
2022/11/24 06:48:30;;;;;;;28.38;4.22;;;;;;;8.44;83.53;98992.25;5050384;28;20021;-85
2022/11/24 06:51:04;;;;;;;16.55;4.38;;;;;;;8.56;83.35;98994.72;5050365;28;20029;-84
2022/11/24 06:53:30;;;;;;;;;;;;;;;8.47;83.29;99002.59;5050330;28;20033;-84
2022/11/24 06:56:00;;;;;;;13.35;4.90;;;;;;;8.52;83.15;99010.72;5050574;28;19913;-85
2022/11/24 06:58:25;;;;;;;17.20;3.03;;;;;;;8.45;83.50;99009.38;5050741;28;20036;-84
2022/11/24 07:00:51;;;;;;;11.57;2.97;;;;;;;8.57;83.10;99014.56;5050487;28;20501;-84
2022/11/24 07:03:18;;;;;;;11.98;4.45;;;;;;;8.52;82.87;99015.38;5039302;28;20033;-84
2022/11/24 07:05:43;;;;;;;30.60;6.35;;;;;;;8.52;83.18;99021.59;5030673;28;20280;-84
2022/11/24 07:08:09;;;;;;;9.25;2.55;;;;;;;8.23;83.91;99023.97;5030489;28;20117;-85
2022/11/24 07:10:34;;;;;;;18.63;5.82;;;;;;;8.28;83.47;99027.53;5030675;28;20075;-84
2022/11/24 07:12:59;;;;;;;13.57;3.17;;;;;;;8.30;83.41;99029.97;5037453;28;20126;-84
2022/11/24 07:15:27;;;;;;;11.63;3.83;;;;;;;8.36;82.79;99038.97;5049986;28;20478;-84
2022/11/24 07:17:52;;;;;;;9.27;2.20;;;;;;;8.45;82.45;99034.63;5049749;28;20455;-84
2022/11/24 07:20:17;;;;;;;13.80;2.57;;;;;;;8.35;82.41;99038.16;5049804;28;20037;-84
2022/11/24 07:22:43;;;;;;;8.35;2.30;;;;;;;8.29;82.39;99044.66;5043484;28;20968;-84
2022/11/24 07:25:09;;;;;;;7.18;2.10;;;;;;;8.44;82.20;99046.56;5030092;28;20030;-83
2022/11/24 07:27:34;;;;;;;5.28;1.75;;;;;;;8.39;82.03;99049.28;5029936;28;20029;-85
2022/11/24 07:30:00;;;;;;;11.70;2.95;;;;;;;8.32;81.56;99038.66;5034989;28;20034;-84
2022/11/24 07:32:25;;;;;;;9.17;2.27;;;;;;;8.26;81.68;99056.84;5044977;28;20021;-85
2022/11/24 07:34:50;;;;;;;9.05;3.20;;;;;;;8.28;81.19;99060.13;5045200;28;20755;-84
2022/11/24 07:37:15;;;;;;;13.55;3.78;;;;;;;8.26;81.27;99072.31;5042434;28;20084;-84
2022/11/24 07:39:41;;;;;;;9.18;3.05;;;;;;;8.37;80.97;99073.19;5033744;28;20029;-84
2022/11/24 07:42:07;;;;;;;7.60;2.73;;;;;;;8.32;81.05;99076.69;5034153;28;20083;-84
2022/11/24 07:44:32;;;;;;;5.30;2.35;;;;;;;8.36;81.11;99077.78;5053804;28;20266;-85
2022/11/24 07:46:58;;;;;;;6.32;1.85;;;;;;;8.32;80.41;99086.75;5053424;28;20505;-84
2022/11/24 07:49:23;;;;;;;6.60;1.50;;;;;;;8.53;79.87;99088.44;5053092;28;20047;-84
2022/11/24 07:51:48;;;;;;;4.87;1.30;;;;;;;8.50;79.66;99099.84;5053932;28;20308;-85
2022/11/24 07:54:13;;;;;;;5.93;1.67;;;;;;;8.57;79.54;99105.06;5034884;28;20674;-84
2022/11/24 07:56:39;;;;;;;4.85;1.38;;;;;;;8.47;79.65;99111.25;5033495;28;20286;-83
2022/11/24 07:59:04;;;;;;;3.37;1.20;;;;;;;8.37;79.76;99112.03;5032364;28;20106;-84
2022/11/24 08:01:29;;;;;;;19.08;3.92;;;;;;;8.39;79.14;99106.31;5033307;28;20615;-84
2022/11/24 08:03:55;;;;;;;3.85;0.82;;;;;;;8.47;79.41;99126.72;5033375;28;20064;-84
2022/11/24 08:06:20;;;;;;;9.33;1.87;;;;;;;8.27;79.43;99123.69;5032008;28;20120;-85
2022/11/24 08:08:46;;;;;;;3.83;1.33;;;;;;;8.37;79.35;99122.06;5049085;28;20269;-84
2022/11/24 08:11:16;;;;;;;4.40;1.00;;;;;;;8.53;79.15;99129.22;5048363;28;20033;-84
2022/11/24 08:13:42;;;;;;;3.17;0.77;;;;;;;8.36;79.23;99136.75;5036458;28;20128;-84
2022/11/24 08:16:10;;;;;;;3.85;0.70;;;;;;;8.42;78.79;99130.22;5039603;28;20156;-84
2022/11/24 08:18:37;;;;;;;3.63;1.55;;;;;;;8.46;78.60;99149.56;5042394;28;20033;-84
2022/11/24 08:21:04;;;;;;;6.07;1.02;;;;;;;8.43;78.77;99152.78;5043600;28;20029;-85
2022/11/24 08:23:30;;;;;;;12.80;2.70;;;;;;;8.52;78.87;99146.56;5050168;28;20252;-84
2022/11/24 08:25:56;;;;;;;7.00;2.03;;;;;;;8.38;78.47;99156.31;5053345;28;20052;-85
2022/11/24 08:28:22;;;;;;;5.57;1.75;;;;;;;8.56;79.02;99170.50;5053445;28;20086;-84
2022/11/24 08:30:47;;;;;;;2.53;0.85;;;;;;;8.55;79.26;99166.97;5053162;28;20029;-85
2022/11/24 08:33:12;;;;;;;4.30;0.80;;;;;;;8.67;79.08;99171.38;5045070;28;20047;-86
2022/11/24 08:35:38;;;;;;;4.38;1.42;;;;;;;8.58;79.39;99173.81;5032010;28;20391;-85
2022/11/24 08:38:04;;;;;;;2.35;0.80;;;;;;;8.50;79.54;99165.03;5033263;28;20037;-87
2022/11/24 08:40:29;;;;;;;4.07;0.65;;;;;;;8.61;79.44;99165.13;5032233;28;20368;-84
2022/11/24 08:42:59;;;;;;;4.72;0.93;;;;;;;8.48;79.42;99167.19;5039348;28;20037;-85
2022/11/24 08:45:24;;;;;;;3.10;1.00;;;;;;;8.49;79.40;99174.28;5032905;28;20479;-85
2022/11/24 08:47:54;;;;;;;5.65;0.90;;;;;;;8.43;79.26;99180.78;5034741;28;20036;-84
2022/11/24 08:50:20;;;;;;;3.35;0.68;;;;;;;8.68;79.33;99190.16;5053061;28;20041;-86
2022/11/24 08:52:45;;;;;;;4.32;1.27;;;;;;;8.67;78.76;99187.69;5052098;28;20494;-86
2022/11/24 08:55:11;;;;;;;3.92;1.00;;;;;;;8.49;79.50;99193.31;5052493;28;20067;-86
2022/11/24 08:57:37;;;;;;;2.65;0.95;;;;;;;8.63;78.93;99190.13;5052536;28;20049;-86
2022/11/24 09:00:04;;;;;;;3.30;1.90;;;;;;;8.42;79.97;99200.84;5052470;28;20037;-87
2022/11/24 09:02:29;;;;;;;4.45;1.08;;;;;;;8.61;79.98;99203.16;5048642;28;20026;-87
2022/11/24 09:04:54;;;;;;;4.77;1.23;;;;;;;8.46;80.65;99207.41;5031143;28;20060;-87
2022/11/24 09:07:20;;;;;;;5.40;0.90;;;;;;;8.36;82.07;99218.25;5032882;28;20631;-87
2022/11/24 09:09:45;;;;;;;7.75;1.40;;;;;;;8.47;82.53;99219.09;5032537;28;20265;-84
2022/11/24 09:12:10;;;;;;;5.07;2.37;;;;;;;8.41;82.72;99218.25;5033206;28;20049;-85
2022/11/24 09:14:35;;;;;;;3.63;1.23;;;;;;;8.30;84.01;99225.53;5051331;28;20286;-86
2022/11/24 09:17:01;;;;;;;8.77;2.30;;;;;;;8.52;83.22;99233.53;5048021;28;20040;-85
2022/11/24 09:19:26;;;;;;;9.53;1.37;;;;;;;8.38;83.67;99237.81;5047055;28;20053;-86
2022/11/24 09:21:51;;;;;;;5.40;1.00;;;;;;;8.40;84.24;99230.22;5051794;28;20743;-86
2022/11/24 09:24:16;;;;;;;8.10;2.00;;;;;;;8.27;84.06;99243.19;5040431;28;20269;-86
2022/11/24 09:26:42;;;;;;;4.70;0.85;;;;;;;8.41;84.21;99242.72;5052924;28;20269;-86
2022/11/24 09:29:09;;;;;;;8.98;1.30;;;;;;;8.44;83.38;99244.88;5052194;28;20059;-86
2022/11/24 09:31:36;;;;;;;5.18;1.42;;;;;;;8.58;83.49;99242.56;5052069;28;20226;-85
2022/11/24 09:34:07;;;;;;;7.00;1.63;;;;;;;8.63;82.82;99247.19;5044082;28;20034;-84
2022/11/24 09:36:33;;;;;;;5.55;1.35;;;;;;;8.75;82.47;99252.41;5050551;28;20044;-85
2022/11/24 09:38:58;;;;;;;14.10;2.63;;;;;;;8.60;82.76;99262.13;5050427;28;20068;-85
2022/11/24 09:41:38;;;;;;;3.80;1.67;;;;;;;8.70;82.33;99258.66;5052270;28;20064;-88
2022/11/24 09:44:26;;;;;;;4.22;1.92;;;;;;;8.85;82.32;99270.66;5051472;28;20098;-83
2022/11/24 09:47:17;;;;;;;9.93;1.70;;;;;;;8.87;81.62;99271.22;5034893;28;20091;-83
2022/11/24 09:50:00;;;;;;;8.13;3.13;;;;;;;9.02;81.21;99275.06;5043284;28;20033;-83
2022/11/24 09:53:08;;;;;;;14.93;3.35;;;;;;;8.99;81.65;99279.97;5050325;28;20040;-86
2022/11/24 09:55:38;;;;;;;5.50;1.70;;;;;;;9.03;81.56;99282.16;5038410;28;20037;-84
2022/11/24 09:58:32;;;;;;;10.02;2.70;;;;;;;8.86;81.63;99286.72;5050911;28;20413;-85
2022/11/24 10:00:58;;;;;;;17.15;3.67;;;;;;;9.02;81.67;99277.78;5041316;28;20128;-85
2022/11/24 10:03:30;;;;;;;8.68;1.50;;;;;;;8.93;81.74;99291.91;5051364;28;20179;-85
2022/11/24 10:05:56;;;;;;;7.78;2.65;;;;;;;8.95;81.37;99289.72;5051733;28;20487;-84
2022/11/24 10:08:34;;;;;;;5.95;2.10;;;;;;;9.05;81.53;99297.09;5050615;28;20032;-84
2022/11/24 10:11:01;;;;;;;7.20;2.25;;;;;;;9.10;81.27;99307.19;5051301;28;20041;-86
2022/11/24 10:13:32;;;;;;;10.18;3.88;;;;;;;9.12;81.06;99299.59;5050618;28;20079;-84
2022/11/24 10:16:20;;;;;;;4.82;1.85;;;;;;;8.96;81.27;99302.25;5051440;28;20032;-85
2022/11/24 10:19:21;;;;;;;4.00;1.98;;;;;;;9.13;81.00;99306.69;5050320;28;20128;-85
2022/11/24 10:21:49;;;;;;;10.82;2.63;;;;;;;8.98;81.25;99310.13;5051145;28;20033;-83
2022/11/24 10:24:20;;;;;;;11.57;2.47;;;;;;;9.10;80.88;99299.88;5031611;28;20038;-84
2022/11/24 10:27:00;;;;;;;5.70;2.05;;;;;;;9.06;80.98;99311.53;5030823;28;20040;-84
2022/11/24 10:29:37;;;;;;;13.25;3.45;;;;;;;8.96;81.61;99318.56;5032402;28;20061;-85
2022/11/24 10:32:06;;;;;;;7.13;2.88;;;;;;;9.05;81.02;99318.06;5049995;28;20037;-83
2022/11/24 10:34:41;;;;;;;10.75;3.38;;;;;;;8.98;81.26;99316.41;5050853;28;20100;-86
2022/11/24 10:37:27;;;;;;;12.80;3.10;;;;;;;8.94;81.13;99319.91;5050503;28;20040;-85
2022/11/24 10:40:11;;;;;;;7.03;2.60;;;;;;;9.02;80.99;99324.84;5051213;28;20083;-86
2022/11/24 10:42:36;;;;;;;7.43;2.63;;;;;;;9.15;81.03;99323.56;5045482;28;20257;-86
2022/11/24 10:45:11;;;;;;;11.45;3.45;;;;;;;9.20;81.07;99334.44;5030657;28;20497;-85
2022/11/24 10:47:37;;;;;;;5.90;1.60;;;;;;;9.22;80.78;99331.44;5031164;28;20028;-86
2022/11/24 10:50:25;;;;;;;8.00;3.05;;;;;;;9.21;80.63;99330.63;5035516;28;20037;-86
2022/11/24 10:53:05;;;;;;;24.55;3.65;;;;;;;9.22;80.04;99337.72;5049496;28;20394;-86
2022/11/24 10:56:04;;;;;;;8.80;3.78;;;;;;;9.30;80.14;99338.28;5051029;28;20047;-86
2022/11/24 10:58:32;;;;;;;11.88;3.97;;;;;;;9.23;80.04;99333.88;5015532;28;20040;-85
2022/11/24 11:01:00;;;;;;;8.70;2.58;;;;;;;9.46;79.58;99334.50;5050745;28;20059;-86
2022/11/24 11:03:43;;;;;;;23.13;3.15;;;;;;;9.62;79.51;99345.44;5049767;28;20041;-87
2022/11/24 11:06:11;;;;;;;9.02;2.28;;;;;;;9.71;78.97;99345.75;5050564;28;20044;-86
2022/11/24 11:08:36;;;;;;;11.20;3.42;;;;;;;9.54;78.56;99345.97;5050086;28;20025;-87
2022/11/24 11:11:26;;;;;;;7.60;2.40;;;;;;;9.74;78.29;99341.66;5050528;28;20082;-86
2022/11/24 11:13:59;;;;;;;13.60;2.15;;;;;;;9.69;78.04;99346.00;5034701;28;20055;-87
2022/11/24 11:16:31;;;;;;;11.32;1.95;;;;;;;9.72;78.08;99352.00;5030586;28;20410;-87
2022/11/24 11:18:56;;;;;;;9.30;2.30;;;;;;;9.82;77.29;99354.75;5041839;28;20068;-87
2022/11/24 11:21:34;;;;;;;5.72;2.13;;;;;;;9.79;77.75;99355.28;5050204;28;20106;-86
2022/11/24 11:24:02;;;;;;;9.20;3.55;;;;;;;9.80;78.14;99362.38;5048787;28;20112;-86
2022/11/24 11:26:36;;;;;;;7.18;2.55;;;;;;;9.76;78.03;99366.72;5048275;28;20204;-86
2022/11/24 11:29:07;;;;;;;24.80;3.63;;;;;;;9.84;77.73;99371.63;5032745;28;20033;-84
2022/11/24 11:31:37;;;;;;;11.50;2.58;;;;;;;10.00;77.52;99366.22;5044501;28;20159;-86
2022/11/24 11:34:08;;;;;;;6.68;1.88;;;;;;;9.95;77.42;99380.63;5049855;28;20047;-86
2022/11/24 11:36:55;;;;;;;13.55;3.00;;;;;;;9.85;77.55;99370.53;5050238;28;20037;-87
2022/11/24 11:39:35;;;;;;;9.15;2.70;;;;;;;10.07;76.71;99372.19;5049700;28;20037;-86